Time;durP1;ratioP1;P1;durP2;ratioP2;P2;SDS_P1;SDS_P2;PMS_P1;PMS_P2;Temp;Humidity;BMP_temperature;BMP_pressure;BME280_temperature;BME280_humidity;BME280_pressure;Samples;Min_cycle;Max_cycle;Signal;HPM_P1;HPM_P2
2024/03/13 00:00:26;;;;;;;0.77;0.60;;;;;;;11.33;65.07;96976.34;4968781;28;20076;-80
2024/03/13 00:02:53;;;;;;;0.63;0.63;;;;;;;11.32;65.44;96987.81;4994285;28;20079;-81
2024/03/13 00:05:19;;;;;;;1.02;0.55;;;;;;;11.33;65.83;96986.78;4977365;28;20029;-80
2024/03/13 00:07:45;;;;;;;0.70;0.70;;;;;;;11.31;65.65;96983.66;5009488;28;20088;-81
2024/03/13 00:10:10;;;;;;;0.70;0.65;;;;;;;11.29;65.94;96975.28;5003400;28;20032;-80
2024/03/13 00:12:36;;;;;;;0.88;0.60;;;;;;;11.33;65.98;96984.19;4996610;28;20141;-80
2024/03/13 00:15:05;;;;;;;0.75;0.60;;;;;;;11.34;66.28;96983.13;5006392;28;20449;-80
2024/03/13 00:17:31;;;;;;;0.80;0.70;;;;;;;11.26;66.21;96978.41;4966139;28;20489;-80
2024/03/13 00:19:57;;;;;;;1.00;0.80;;;;;;;11.42;65.58;96977.44;4974741;28;20075;-80
2024/03/13 00:22:24;;;;;;;1.33;0.60;;;;;;;11.34;65.61;96975.31;4995346;28;20034;-80
2024/03/13 00:24:54;;;;;;;1.08;0.70;;;;;;;11.34;65.95;96974.53;4999323;28;20037;-81
2024/03/13 00:27:20;;;;;;;1.02;0.52;;;;;;;11.37;65.68;96980.00;5006477;28;20294;-80
2024/03/13 00:29:49;;;;;;;0.88;0.50;;;;;;;11.43;65.82;96984.22;4945337;28;20057;-80
2024/03/13 00:32:16;;;;;;;0.88;0.50;;;;;;;11.42;65.79;96984.47;4991164;28;20588;-80
2024/03/13 00:34:47;;;;;;;1.05;0.77;;;;;;;11.46;65.94;96987.34;5002123;28;20112;-80
2024/03/13 00:37:13;;;;;;;0.70;0.60;;;;;;;11.36;66.53;96988.88;4978254;28;20049;-81
2024/03/13 00:39:39;;;;;;;0.95;0.75;;;;;;;11.38;66.17;96989.41;4962755;28;20041;-81
2024/03/13 00:42:05;;;;;;;1.08;0.70;;;;;;;11.47;66.01;96983.72;5027602;28;20069;-80
2024/03/13 00:44:30;;;;;;;0.93;0.70;;;;;;;11.42;66.28;96974.81;4993431;28;20037;-81
2024/03/13 00:46:56;;;;;;;0.90;0.50;;;;;;;11.45;66.39;96968.34;4988102;28;20033;-80
2024/03/13 00:49:24;;;;;;;0.98;0.77;;;;;;;11.52;66.15;96978.53;4995884;28;20060;-80
2024/03/13 00:51:50;;;;;;;1.20;0.45;;;;;;;11.51;65.94;96985.53;4995826;28;20034;-80
2024/03/13 00:54:17;;;;;;;0.70;0.60;;;;;;;11.46;66.86;96987.34;5012612;28;20086;-80
2024/03/13 00:56:47;;;;;;;0.98;0.80;;;;;;;11.38;66.86;97004.28;5012440;28;20120;-83
2024/03/13 00:59:13;;;;;;;0.57;0.50;;;;;;;11.33;66.88;96992.00;4979426;28;20378;-83
2024/03/13 01:01:40;;;;;;;1.02;0.70;;;;;;;11.39;66.72;96993.56;4996055;28;20044;-83
2024/03/13 01:04:07;;;;;;;0.60;0.50;;;;;;;11.50;66.71;96991.81;4992726;28;20559;-83
2024/03/13 01:06:34;;;;;;;1.25;0.60;;;;;;;11.41;66.49;96983.69;4969525;28;20124;-83
2024/03/13 01:08:59;;;;;;;1.55;0.55;;;;;;;11.46;67.02;96995.94;4972783;28;20026;-83
2024/03/13 01:11:28;;;;;;;0.80;0.60;;;;;;;11.50;66.55;96996.22;4996291;28;20041;-83
2024/03/13 01:13:54;;;;;;;1.20;0.60;;;;;;;11.49;67.07;96987.63;4980817;28;20026;-83
2024/03/13 01:16:20;;;;;;;0.95;0.70;;;;;;;11.52;66.50;96992.34;4995304;28;20171;-83
2024/03/13 01:18:46;;;;;;;0.77;0.60;;;;;;;11.52;66.79;96994.94;4990244;28;20087;-82
2024/03/13 01:21:11;;;;;;;1.00;0.65;;;;;;;11.56;66.62;96990.00;4985732;28;20037;-82
2024/03/13 01:23:40;;;;;;;0.75;0.60;;;;;;;11.60;66.80;96980.63;4996305;28;20039;-82
2024/03/13 01:26:09;;;;;;;0.65;0.50;;;;;;;11.77;66.27;96989.06;4979070;28;20037;-82
2024/03/13 01:28:36;;;;;;;1.00;0.65;;;;;;;11.63;66.56;96980.13;4993140;28;20040;-82
2024/03/13 01:31:08;;;;;;;0.68;0.57;;;;;;;11.74;65.92;96986.19;4987324;28;20053;-82
2024/03/13 01:33:38;;;;;;;0.90;0.63;;;;;;;11.77;66.05;96985.63;4984620;28;20135;-83
2024/03/13 01:36:05;;;;;;;2.03;0.80;;;;;;;11.77;65.91;96981.22;5000729;28;20034;-82
2024/03/13 01:38:30;;;;;;;0.65;0.52;;;;;;;11.84;66.09;96980.19;4982364;28;20124;-83
2024/03/13 01:55:06;;;;;;;0.70;0.60;;;;;;;11.92;66.00;96977.13;4997196;28;20037;-82
2024/03/13 01:57:55;;;;;;;1.08;0.52;;;;;;;11.92;66.57;96977.13;4989667;28;20132;-82
2024/03/13 02:03:08;;;;;;;0.50;0.50;;;;;;;11.84;66.28;96967.94;5001322;28;20398;-82
2024/03/13 02:05:35;;;;;;;0.63;0.30;;;;;;;11.87;66.13;96980.47;4997510;28;20033;-82
2024/03/13 02:08:03;;;;;;;0.50;0.40;;;;;;;11.86;66.80;96972.88;5006521;28;20029;-82
2024/03/13 02:10:28;;;;;;;0.50;0.30;;;;;;;11.88;66.52;96966.38;5003789;28;20523;-83
2024/03/13 02:13:15;;;;;;;0.45;0.38;;;;;;;11.93;66.42;96963.81;4985987;28;20021;-83
2024/03/13 02:15:42;;;;;;;0.60;0.40;;;;;;;11.89;66.82;96972.38;4985830;28;20048;-82
2024/03/13 02:18:29;;;;;;;0.57;0.50;;;;;;;12.00;66.31;96974.00;4975988;28;20029;-80
2024/03/13 02:20:58;;;;;;;0.40;0.32;;;;;;;11.87;66.96;96970.03;4976097;28;20038;-81
2024/03/13 02:23:27;;;;;;;0.60;0.40;;;;;;;11.89;66.10;96972.38;4984991;28;20052;-80
2024/03/13 02:25:53;;;;;;;0.32;0.32;;;;;;;11.87;66.80;96964.81;4999621;28;20046;-80
2024/03/13 02:28:36;;;;;;;0.38;0.30;;;;;;;12.04;66.28;96975.03;4999918;28;20030;-80
2024/03/13 02:31:02;;;;;;;0.38;0.28;;;;;;;11.94;66.64;96964.59;4992951;28;20044;-80
2024/03/13 02:33:27;;;;;;;0.52;0.30;;;;;;;11.87;66.78;96969.25;4984263;28;20141;-81
2024/03/13 02:35:53;;;;;;;0.20;0.20;;;;;;;11.86;66.78;96963.25;5000435;28;20505;-80
2024/03/13 02:38:18;;;;;;;0.47;0.38;;;;;;;11.87;66.45;96974.47;5006092;28;20136;-82
2024/03/13 02:40:44;;;;;;;0.30;0.30;;;;;;;11.83;67.15;96973.41;4993454;28;20096;-82
2024/03/13 02:43:09;;;;;;;0.55;0.20;;;;;;;11.90;66.38;96963.53;4993425;28;20037;-82
2024/03/13 02:45:35;;;;;;;0.25;0.22;;;;;;;11.89;67.29;96973.19;4999545;28;20448;-82
2024/03/13 02:48:01;;;;;;;0.20;0.20;;;;;;;11.88;67.02;96966.38;4982901;28;20062;-83
2024/03/13 02:50:26;;;;;;;0.50;0.20;;;;;;;11.89;67.38;96974.97;4983623;28;20036;-82
2024/03/13 02:52:52;;;;;;;0.10;0.10;;;;;;;11.87;67.54;96974.47;5004178;28;20033;-82
2024/03/13 02:55:18;;;;;;;0.22;0.20;;;;;;;11.89;67.23;96973.19;4996958;28;20033;-82
2024/03/13 02:57:44;;;;;;;0.20;0.20;;;;;;;11.89;67.36;96981.00;4966197;28;20486;-82
2024/03/13 03:00:10;;;;;;;0.80;0.20;;;;;;;11.87;66.86;96979.69;4998837;28;20091;-82
2024/03/13 03:02:36;;;;;;;0.20;0.20;;;;;;;11.89;66.64;96980.19;5003181;28;20395;-82
2024/03/13 03:05:03;;;;;;;0.25;0.20;;;;;;;11.91;67.52;96978.94;4994301;28;20057;-82
2024/03/13 03:07:31;;;;;;;0.20;0.20;;;;;;;11.86;67.16;96970.28;4986576;28;20036;-81
2024/03/13 03:09:56;;;;;;;0.28;0.28;;;;;;;11.89;66.52;96974.97;4992312;28;20509;-81
2024/03/13 03:12:22;;;;;;;0.30;0.30;;;;;;;11.94;66.63;96982.84;4996262;28;20093;-81
2024/03/13 03:14:47;;;;;;;0.20;0.20;;;;;;;11.92;67.18;96980.50;5008713;28;20033;-81
2024/03/13 03:17:14;;;;;;;0.17;0.17;;;;;;;11.93;67.36;96983.91;4991741;28;20087;-81
2024/03/13 03:19:40;;;;;;;0.22;0.22;;;;;;;11.94;67.42;96986.25;4989064;28;20498;-81
2024/03/13 03:22:05;;;;;;;0.20;0.20;;;;;;;11.92;67.55;96979.72;4958132;28;20080;-81
2024/03/13 03:24:31;;;;;;;0.22;0.20;;;;;;;11.92;66.78;96983.09;4984589;28;20040;-81
2024/03/13 03:27:00;;;;;;;0.13;0.13;;;;;;;11.98;67.10;96976.09;4987496;28;20108;-81
2024/03/13 03:29:28;;;;;;;0.20;0.20;;;;;;;12.02;67.21;96982.34;4986534;28;20038;-81
2024/03/13 03:31:56;;;;;;;0.60;0.20;;;;;;;11.93;67.49;96989.13;4989427;28;20030;-81
2024/03/13 03:34:23;;;;;;;0.20;0.20;;;;;;;11.93;66.91;96987.28;5002753;28;20323;-81
2024/03/13 03:36:48;;;;;;;0.30;0.30;;;;;;;11.91;67.47;96992.00;4981124;28;20046;-81
2024/03/13 03:39:17;;;;;;;0.50;0.20;;;;;;;11.93;67.64;96991.75;4986029;28;20048;-81
2024/03/13 03:41:43;;;;;;;0.20;0.20;;;;;;;11.99;67.35;96993.31;4997434;28;20041;-81
2024/03/13 03:44:11;;;;;;;0.45;0.20;;;;;;;11.98;66.91;96986.53;4976181;28;20029;-81
2024/03/13 03:46:40;;;;;;;0.28;0.20;;;;;;;12.05;66.61;96984.44;4998617;28;20060;-81
2024/03/13 03:49:06;;;;;;;0.28;0.25;;;;;;;12.02;66.58;96982.34;4990280;28;20065;-83
2024/03/13 03:51:32;;;;;;;0.57;0.30;;;;;;;12.07;67.32;96990.19;4981019;28;20044;-83
2024/03/13 03:53:58;;;;;;;2.47;0.40;;;;;;;12.02;67.32;96986.78;4978936;28;20038;-82
2024/03/13 03:56:24;;;;;;;0.40;0.20;;;;;;;12.00;67.25;96979.22;4990500;28;20069;-82
2024/03/13 03:58:50;;;;;;;0.40;0.20;;;;;;;12.01;67.85;96978.16;4987721;28;20180;-83
2024/03/13 04:01:16;;;;;;;0.38;0.22;;;;;;;11.93;67.13;96974.25;4977712;28;20048;-83
2024/03/13 04:03:42;;;;;;;0.30;0.20;;;;;;;11.98;67.58;96976.88;4973603;28;20036;-82
2024/03/13 04:06:07;;;;;;;0.20;0.20;;;;;;;12.05;66.94;96987.06;4973885;28;20396;-83
2024/03/13 04:08:33;;;;;;;0.50;0.28;;;;;;;12.01;67.50;96978.16;4984937;28;20045;-83
2024/03/13 04:10:59;;;;;;;0.20;0.20;;;;;;;11.99;66.90;96985.47;4990340;28;20409;-83
2024/03/13 04:13:24;;;;;;;0.30;0.20;;;;;;;12.04;67.19;96990.69;4976807;28;20109;-83
2024/03/13 04:15:53;;;;;;;0.20;0.20;;;;;;;11.98;67.63;96976.09;4999270;28;20037;-83
2024/03/13 04:18:18;;;;;;;0.88;0.30;;;;;;;12.06;66.88;96987.84;4985237;28;20048;-83
2024/03/13 04:20:45;;;;;;;0.20;0.20;;;;;;;12.05;67.17;96992.28;4979730;28;20034;-83
2024/03/13 04:23:14;;;;;;;0.20;0.20;;;;;;;12.08;66.88;96991.78;5002030;28;20033;-83
2024/03/13 04:25:40;;;;;;;0.30;0.20;;;;;;;11.99;67.47;96993.31;4977913;28;20030;-83
2024/03/13 04:28:07;;;;;;;0.38;0.20;;;;;;;12.05;68.07;96996.72;4988099;28;20022;-83
2024/03/13 04:30:32;;;;;;;0.32;0.20;;;;;;;12.04;67.30;96998.53;4999864;28;20041;-83
2024/03/13 04:32:58;;;;;;;0.28;0.20;;;;;;;12.04;67.73;96995.91;4978108;28;20088;-83
2024/03/13 04:35:23;;;;;;;0.20;0.20;;;;;;;12.07;67.52;97000.63;4975995;28;20117;-83
2024/03/13 04:37:50;;;;;;;0.40;0.20;;;;;;;12.07;67.78;97000.63;5007571;28;20037;-83
2024/03/13 04:40:15;;;;;;;0.32;0.20;;;;;;;12.04;67.04;96995.91;4993402;28;20026;-81
2024/03/13 04:42:40;;;;;;;0.50;0.40;;;;;;;12.08;67.05;97004.81;4974261;28;20029;-81
2024/03/13 04:45:06;;;;;;;0.80;0.30;;;;;;;12.11;67.06;97006.13;4979685;28;20034;-81
2024/03/13 04:47:34;;;;;;;0.85;0.30;;;;;;;12.11;67.74;97013.94;4998605;28;20034;-81
2024/03/13 04:49:59;;;;;;;0.70;0.38;;;;;;;12.08;67.20;97002.22;4996124;28;20037;-81
2024/03/13 04:52:25;;;;;;;0.57;0.40;;;;;;;12.05;67.01;97002.72;4985859;28;20033;-81
2024/03/13 04:54:51;;;;;;;0.80;0.40;;;;;;;12.13;67.15;97009.25;4998483;28;20473;-81
2024/03/13 04:57:16;;;;;;;1.52;0.63;;;;;;;12.10;67.05;97015.78;4987480;28;20502;-81
2024/03/13 04:59:42;;;;;;;0.85;0.45;;;;;;;12.15;67.79;97021.00;4997015;28;20484;-80
2024/03/13 05:02:07;;;;;;;0.82;0.47;;;;;;;12.15;67.46;97026.22;4995897;28;20084;-81
2024/03/13 05:04:36;;;;;;;1.02;0.50;;;;;;;12.22;67.07;97015.53;4982113;28;20132;-80
2024/03/13 05:07:02;;;;;;;1.23;0.70;;;;;;;12.18;66.75;97024.91;4977167;28;20049;-80
2024/03/13 05:09:29;;;;;;;1.20;0.70;;;;;;;12.17;67.26;97021.53;4996763;28;20517;-80
2024/03/13 05:11:54;;;;;;;1.60;0.85;;;;;;;12.16;67.69;97019.94;4968071;28;20124;-80
2024/03/13 05:14:20;;;;;;;1.95;0.90;;;;;;;12.14;67.22;97022.03;5004538;28;20148;-80
2024/03/13 05:16:45;;;;;;;1.60;0.80;;;;;;;12.19;67.19;97031.72;4996100;28;20037;-81
2024/03/13 05:19:11;;;;;;;1.20;0.60;;;;;;;12.20;67.07;97029.88;4987580;28;20068;-81
2024/03/13 05:21:36;;;;;;;1.52;0.93;;;;;;;12.21;67.69;97031.47;4999454;28;20405;-80
2024/03/13 05:24:03;;;;;;;1.90;0.98;;;;;;;12.17;67.32;97031.97;4985435;28;20117;-81
2024/03/13 05:26:29;;;;;;;1.40;0.90;;;;;;;12.18;67.28;97040.56;5000151;28;20069;-81
2024/03/13 05:28:54;;;;;;;1.20;0.80;;;;;;;12.17;67.04;97044.25;4987947;28;20533;-83
2024/03/13 05:31:21;;;;;;;1.52;1.10;;;;;;;12.21;67.45;97052.34;4982045;28;20418;-83
2024/03/13 05:33:47;;;;;;;2.17;1.27;;;;;;;12.22;67.26;97053.91;4995452;28;20077;-83
2024/03/13 05:36:12;;;;;;;2.20;1.42;;;;;;;12.27;67.26;97059.13;4981211;28;20057;-83
2024/03/13 05:38:38;;;;;;;2.40;1.20;;;;;;;12.26;68.12;97054.97;5010436;28;20075;-83
2024/03/13 05:41:05;;;;;;;1.98;1.10;;;;;;;12.25;67.43;97056.81;4977137;28;20516;-83
2024/03/13 05:43:30;;;;;;;2.10;1.20;;;;;;;12.25;67.69;97045.56;4979690;28;20030;-83
2024/03/13 05:45:56;;;;;;;3.47;2.00;;;;;;;12.25;67.75;97056.00;4990367;28;20047;-83
2024/03/13 05:48:21;;;;;;;3.28;1.75;;;;;;;12.32;67.79;97061.75;4978888;28;20536;-83
2024/03/13 05:50:47;;;;;;;3.28;1.75;;;;;;;12.33;67.47;97065.94;4993485;28;20096;-83
2024/03/13 05:53:13;;;;;;;2.97;1.90;;;;;;;12.35;67.48;97069.06;4993899;28;20044;-82
2024/03/13 05:55:38;;;;;;;3.88;2.15;;;;;;;12.33;67.12;97065.94;4994882;28;20511;-83
2024/03/13 05:58:04;;;;;;;3.33;1.80;;;;;;;12.33;68.06;97066.72;5002242;28;20155;-83
2024/03/13 06:00:29;;;;;;;3.20;1.85;;;;;;;12.36;67.23;97063.59;5002429;28;20120;-83
2024/03/13 06:02:55;;;;;;;4.22;2.22;;;;;;;12.40;66.88;97076.16;4983470;28;20037;-83
2024/03/13 06:05:21;;;;;;;5.20;2.33;;;;;;;12.42;67.74;97072.22;4978950;28;20489;-82
2024/03/13 06:07:47;;;;;;;4.20;2.70;;;;;;;12.39;67.92;97067.53;4981177;28;20108;-82
2024/03/13 06:10:12;;;;;;;4.63;2.83;;;;;;;12.41;67.64;97068.06;4977358;28;20750;-81
2024/03/13 06:12:38;;;;;;;3.40;2.10;;;;;;;12.44;68.00;97074.56;4985564;28;20095;-80
2024/03/13 06:15:10;;;;;;;4.10;2.28;;;;;;;12.46;67.45;97072.50;5006345;28;20040;-80
2024/03/13 06:17:35;;;;;;;4.22;2.33;;;;;;;12.44;67.55;97062.31;4994293;28;20092;-80
2024/03/13 06:20:11;;;;;;;4.70;2.47;;;;;;;12.51;68.24;97077.75;5005270;28;20045;-80
2024/03/13 06:22:37;;;;;;;4.07;2.28;;;;;;;12.49;67.98;97074.59;4994407;28;20030;-80
2024/03/13 06:25:06;;;;;;;3.53;2.08;;;;;;;12.52;68.49;97085.28;4970508;28;20087;-80
2024/03/13 06:27:34;;;;;;;2.85;1.92;;;;;;;12.57;67.88;97091.59;4984367;28;20070;-81
2024/03/13 06:30:01;;;;;;;4.85;2.53;;;;;;;12.57;68.20;97078.53;4993605;28;20048;-80
2024/03/13 06:32:29;;;;;;;3.42;2.20;;;;;;;12.62;67.63;97083.75;5013152;28;21227;-81
2024/03/13 06:34:56;;;;;;;4.65;2.13;;;;;;;12.57;68.55;97088.97;4997661;28;20030;-80
2024/03/13 06:37:25;;;;;;;2.60;1.92;;;;;;;12.54;68.58;97083.22;4981878;28;20025;-81
2024/03/13 06:39:53;;;;;;;3.83;2.03;;;;;;;12.66;67.90;97090.03;4989144;28;20506;-83
2024/03/13 06:42:19;;;;;;;3.20;1.73;;;;;;;12.58;68.48;97093.13;5006701;28;20022;-82
2024/03/13 06:44:45;;;;;;;2.67;1.40;;;;;;;12.63;68.43;97091.34;4995339;28;20048;-83
2024/03/13 06:47:11;;;;;;;3.05;2.00;;;;;;;12.59;67.94;97087.66;4965746;28;20550;-83
2024/03/13 06:49:39;;;;;;;2.50;1.70;;;;;;;12.74;68.86;97098.13;4994002;28;20065;-83
2024/03/13 06:52:06;;;;;;;3.50;1.55;;;;;;;12.64;68.46;97092.88;4958331;28;20060;-82
2024/03/13 06:54:32;;;;;;;3.22;1.88;;;;;;;12.66;67.73;97096.06;4962687;28;20490;-82
2024/03/13 06:56:57;;;;;;;2.42;1.50;;;;;;;12.71;67.78;97108.31;4979697;28;20061;-83
2024/03/13 06:59:23;;;;;;;3.15;1.33;;;;;;;12.70;68.36;97102.31;4989108;28;20086;-82
2024/03/13 07:01:51;;;;;;;2.72;1.75;;;;;;;12.72;68.50;97099.44;4978802;28;20551;-82
2024/03/13 07:04:18;;;;;;;2.60;1.83;;;;;;;12.76;67.96;97104.94;4964475;28;20054;-82
2024/03/13 07:06:43;;;;;;;3.20;1.60;;;;;;;12.70;68.20;97101.53;4997369;28;20025;-83
2024/03/13 07:09:09;;;;;;;2.45;1.55;;;;;;;12.79;68.26;97110.41;4996792;28;20044;-82
2024/03/13 07:11:34;;;;;;;1.48;1.10;;;;;;;12.84;68.76;97105.19;4995948;28;20109;-82
2024/03/13 07:14:01;;;;;;;1.85;1.20;;;;;;;12.93;68.96;97110.69;5005000;28;20041;-82
2024/03/13 07:16:26;;;;;;;2.03;1.27;;;;;;;13.01;67.88;97115.41;4986921;28;20025;-82
2024/03/13 07:18:52;;;;;;;1.75;1.40;;;;;;;13.02;68.98;97110.94;5013879;28;20095;-82
2024/03/13 07:21:17;;;;;;;1.77;1.20;;;;;;;13.05;68.77;97115.66;4995266;28;20036;-80
2024/03/13 07:23:42;;;;;;;2.50;1.50;;;;;;;13.06;68.27;97109.41;5010860;28;20095;-80
2024/03/13 07:26:08;;;;;;;1.65;1.20;;;;;;;13.13;68.67;97117.75;4989729;28;20056;-80
2024/03/13 07:28:38;;;;;;;2.63;1.80;;;;;;;13.29;69.15;97121.16;4985893;28;20541;-80
2024/03/13 07:31:07;;;;;;;3.78;1.65;;;;;;;13.39;67.95;97117.78;4997315;28;20042;-80
2024/03/13 07:33:33;;;;;;;1.95;1.50;;;;;;;13.27;67.85;97124.03;4997810;28;20124;-81
2024/03/13 07:35:58;;;;;;;1.55;1.20;;;;;;;13.34;67.95;97131.63;4976012;28;20037;-80
2024/03/13 07:38:24;;;;;;;4.10;2.10;;;;;;;13.40;68.57;97125.38;4984941;28;20076;-81
2024/03/13 07:40:49;;;;;;;2.28;1.73;;;;;;;13.46;68.50;97126.13;4987841;28;20033;-81
2024/03/13 07:43:14;;;;;;;2.70;2.10;;;;;;;13.50;68.03;97132.38;4986441;28;20033;-80
2024/03/13 07:45:40;;;;;;;2.67;2.10;;;;;;;13.57;68.47;97130.31;4981645;28;20373;-80
2024/03/13 07:48:07;;;;;;;3.58;2.25;;;;;;;13.62;68.51;97127.69;4987936;28;20036;-80
2024/03/13 07:50:38;;;;;;;3.45;2.10;;;;;;;13.73;68.21;97138.13;5000949;28;20478;-83
2024/03/13 07:53:04;;;;;;;2.50;1.73;;;;;;;13.65;68.42;97142.84;4997167;28;20441;-82
2024/03/13 07:55:30;;;;;;;3.72;2.30;;;;;;;13.72;68.37;97137.31;4963645;28;20461;-83
2024/03/13 07:57:56;;;;;;;3.13;2.10;;;;;;;13.71;68.27;97142.81;4977748;28;20121;-83
2024/03/13 08:00:22;;;;;;;3.75;2.10;;;;;;;13.70;68.62;97138.66;4994561;28;20041;-82
2024/03/13 08:02:51;;;;;;;2.53;2.03;;;;;;;13.75;68.42;97143.88;4990707;28;20497;-83
2024/03/13 08:05:16;;;;;;;2.22;1.83;;;;;;;13.81;68.71;97148.03;4969266;28;20402;-83
2024/03/13 08:07:44;;;;;;;2.63;1.90;;;;;;;13.96;68.93;97149.84;4971606;28;20091;-83
2024/03/13 08:10:10;;;;;;;2.70;2.17;;;;;;;14.01;68.66;97155.84;5004659;28;20481;-83
2024/03/13 08:12:36;;;;;;;2.55;1.90;;;;;;;14.07;68.35;97154.00;4973917;28;20037;-82
2024/03/13 08:15:02;;;;;;;2.58;1.80;;;;;;;14.05;68.69;97169.97;4987791;28;20026;-83
2024/03/13 08:17:27;;;;;;;3.08;2.47;;;;;;;14.15;68.76;97165.75;4992640;28;20026;-82
2024/03/13 08:19:53;;;;;;;2.63;1.80;;;;;;;14.23;68.30;97170.44;4972141;28;20033;-82
2024/03/13 08:22:18;;;;;;;2.03;1.63;;;;;;;14.12;68.13;97171.50;4999983;28;20022;-82
2024/03/13 08:24:44;;;;;;;2.03;1.83;;;;;;;14.13;68.95;97178.31;4994725;28;20363;-83
2024/03/13 08:27:10;;;;;;;1.67;1.25;;;;;;;14.16;68.11;97169.94;4977076;28;20041;-83
2024/03/13 08:29:37;;;;;;;2.15;1.38;;;;;;;14.27;68.08;97179.31;4984605;28;20034;-80
2024/03/13 08:32:06;;;;;;;1.92;1.30;;;;;;;14.26;67.96;97180.38;4993301;28;20033;-81
2024/03/13 08:34:33;;;;;;;1.67;1.40;;;;;;;14.25;67.90;97186.66;4992421;28;20125;-81
2024/03/13 08:36:58;;;;;;;2.97;1.23;;;;;;;14.22;68.46;97193.22;5010340;28;20026;-81
2024/03/13 08:39:27;;;;;;;2.63;1.40;;;;;;;14.36;68.48;97193.44;4989534;28;20394;-81
2024/03/13 08:41:54;;;;;;;2.65;1.75;;;;;;;14.32;67.87;97178.53;4980646;28;20485;-81
2024/03/13 08:44:20;;;;;;;2.45;1.77;;;;;;;14.35;68.61;97202.34;4976811;28;20034;-80
2024/03/13 08:46:45;;;;;;;2.40;1.67;;;;;;;14.29;67.50;97200.81;5003592;28;20052;-80
2024/03/13 08:49:11;;;;;;;2.30;2.00;;;;;;;14.26;67.75;97192.66;4988505;28;20022;-80
2024/03/13 08:51:36;;;;;;;2.22;1.95;;;;;;;14.33;67.72;97203.66;4967029;28;20121;-80
2024/03/13 08:54:02;;;;;;;3.03;2.00;;;;;;;14.22;68.50;97201.09;4989816;28;20034;-81
2024/03/13 08:56:27;;;;;;;3.00;2.10;;;;;;;14.39;68.76;97211.25;4977587;28;20046;-80
2024/03/13 08:58:52;;;;;;;2.90;1.92;;;;;;;14.45;67.96;97224.31;4982532;28;20022;-80
2024/03/13 09:01:18;;;;;;;1.77;1.40;;;;;;;14.32;68.17;97204.72;4994254;28;20069;-83
2024/03/13 09:03:45;;;;;;;2.75;1.85;;;;;;;14.42;68.26;97221.16;4991375;28;20473;-84
2024/03/13 09:06:16;;;;;;;2.45;2.05;;;;;;;14.61;67.72;97225.84;4969789;28;20041;-84
2024/03/13 09:08:44;;;;;;;2.88;2.28;;;;;;;14.65;68.78;97229.50;4980338;28;20041;-83
2024/03/13 09:11:12;;;;;;;2.90;1.90;;;;;;;14.63;68.77;97226.34;4978052;28;20046;-84
2024/03/13 09:13:40;;;;;;;3.95;2.85;;;;;;;14.71;68.21;97230.28;4983749;28;20045;-83
2024/03/13 09:16:05;;;;;;;2.55;2.17;;;;;;;14.66;67.59;97233.69;5001823;28;20072;-84
2024/03/13 09:18:31;;;;;;;3.92;1.95;;;;;;;14.67;67.45;97240.50;4995917;28;20072;-87
2024/03/13 09:20:57;;;;;;;3.63;2.20;;;;;;;14.76;67.91;97240.72;4995557;28;20116;-83
2024/03/13 09:23:22;;;;;;;2.53;2.08;;;;;;;14.70;67.65;97234.72;4980373;28;20505;-84
2024/03/13 09:25:48;;;;;;;3.40;2.20;;;;;;;14.69;67.66;97232.38;4998392;28;20038;-85
2024/03/13 09:28:13;;;;;;;3.97;1.80;;;;;;;14.75;66.91;97239.94;5011313;28;20096;-84
2024/03/13 09:30:39;;;;;;;2.75;1.80;;;;;;;14.71;67.95;97241.53;4995754;28;20069;-85
2024/03/13 09:33:08;;;;;;;2.88;1.88;;;;;;;14.75;67.69;97242.56;4989670;28;20034;-84
2024/03/13 09:35:33;;;;;;;2.95;1.67;;;;;;;14.78;67.75;97241.25;4978582;28;20088;-85
2024/03/13 09:37:59;;;;;;;2.25;1.95;;;;;;;14.77;68.28;97240.47;4992512;28;20405;-84
2024/03/13 09:40:24;;;;;;;3.03;1.70;;;;;;;14.92;67.22;97252.69;4984570;28;20070;-84
2024/03/13 09:42:53;;;;;;;2.38;1.50;;;;;;;14.84;67.81;97242.78;4984208;28;20026;-84
2024/03/13 09:45:22;;;;;;;4.05;2.40;;;;;;;14.89;68.22;97240.16;5000105;28;20048;-85
2024/03/13 09:47:49;;;;;;;3.30;2.03;;;;;;;14.78;68.31;97228.91;5006716;28;20041;-85
2024/03/13 09:50:15;;;;;;;2.72;2.22;;;;;;;14.95;67.46;97244.28;5010933;28;20470;-80
2024/03/13 09:52:42;;;;;;;2.92;1.90;;;;;;;14.93;69.15;97243.00;5016173;28;20049;-80
2024/03/13 09:55:11;;;;;;;3.13;1.60;;;;;;;14.96;67.98;97242.47;4983628;28;20168;-80
2024/03/13 09:57:38;;;;;;;2.45;1.95;;;;;;;15.09;67.67;97247.09;4990871;28;20115;-80
2024/03/13 10:00:13;;;;;;;1.67;1.58;;;;;;;15.21;67.26;97244.13;4995574;28;20033;-80
2024/03/13 10:02:42;;;;;;;2.55;1.30;;;;;;;15.12;67.30;97253.66;4981384;28;20522;-80
2024/03/13 10:05:11;;;;;;;1.55;1.08;;;;;;;15.01;67.10;97245.06;5008143;28;20029;-79
2024/03/13 10:07:37;;;;;;;2.55;1.13;;;;;;;15.02;67.50;97262.34;4982895;28;20076;-80
2024/03/13 10:10:07;;;;;;;2.28;1.20;;;;;;;15.13;67.68;97257.81;5011047;28;20033;-81
2024/03/13 10:12:33;;;;;;;2.00;1.38;;;;;;;15.16;67.88;97260.72;4990510;28;20033;-80
2024/03/13 10:15:05;;;;;;;2.65;1.30;;;;;;;15.18;67.70;97263.03;4986568;28;20037;-80
2024/03/13 10:17:34;;;;;;;2.78;1.63;;;;;;;15.29;67.54;97269.81;4988054;28;20359;-80
2024/03/13 10:20:00;;;;;;;2.17;1.40;;;;;;;15.24;67.59;97267.22;4978991;28;20043;-80
2024/03/13 10:22:25;;;;;;;2.65;1.00;;;;;;;15.25;66.88;97262.75;5008282;28;20486;-81
2024/03/13 10:24:52;;;;;;;1.90;1.13;;;;;;;15.29;66.82;97276.91;5002204;28;20052;-80
2024/03/13 10:27:20;;;;;;;1.58;0.98;;;;;;;15.39;67.02;97276.03;4996044;28;20073;-80
2024/03/13 10:29:48;;;;;;;2.20;1.30;;;;;;;15.32;67.31;97271.88;4977559;28;20056;-80
2024/03/13 10:32:17;;;;;;;1.60;1.08;;;;;;;15.36;66.92;97267.66;4995885;28;20029;-80
2024/03/13 10:34:43;;;;;;;1.40;1.20;;;;;;;15.30;66.72;97267.94;4978232;28;20041;-80
2024/03/13 10:37:12;;;;;;;1.60;1.35;;;;;;;15.35;66.86;97270.53;4966583;28;20053;-80
2024/03/13 10:39:38;;;;;;;2.50;1.10;;;;;;;15.32;67.18;97284.22;4999087;28;20700;-80
2024/03/13 10:42:07;;;;;;;1.98;1.20;;;;;;;15.27;67.73;97277.16;4990013;28;20060;-80
2024/03/13 10:44:33;;;;;;;1.15;0.95;;;;;;;15.30;67.48;97279.25;4981643;28;20147;-81
2024/03/13 10:47:00;;;;;;;1.55;1.30;;;;;;;15.26;67.39;97267.72;5005996;28;20037;-81
2024/03/13 10:49:27;;;;;;;2.42;1.30;;;;;;;15.30;66.81;97262.72;4999408;28;20036;-80
2024/03/13 10:52:00;;;;;;;1.88;1.13;;;;;;;15.53;67.47;97272.53;5016647;28;20041;-81
2024/03/13 10:54:26;;;;;;;2.67;1.38;;;;;;;15.39;68.13;97273.41;4997141;28;20081;-81
2024/03/13 10:56:52;;;;;;;2.47;1.10;;;;;;;15.47;67.17;97280.69;4982385;28;20029;-81
2024/03/13 10:59:19;;;;;;;2.03;1.05;;;;;;;15.49;67.39;97278.59;4993707;28;20045;-81
2024/03/13 11:01:47;;;;;;;1.58;1.17;;;;;;;15.42;67.21;97278.91;5005570;28;20599;-80
2024/03/13 11:04:14;;;;;;;4.60;1.23;;;;;;;15.40;67.26;97267.88;4978291;28;20258;-80
2024/03/13 11:06:40;;;;;;;1.10;1.00;;;;;;;15.46;67.38;97272.06;4965323;28;20559;-80
2024/03/13 11:09:20;;;;;;;3.05;1.00;;;;;;;15.57;67.72;97277.22;4975297;28;20065;-80
2024/03/13 11:11:56;;;;;;;1.38;1.23;;;;;;;15.84;67.01;97258.41;4984575;28;20530;-87
2024/03/13 11:14:23;;;;;;;1.30;1.00;;;;;;;15.95;68.04;97266.97;4995635;28;20583;-90
2024/03/13 11:16:50;;;;;;;1.67;1.58;;;;;;;16.15;67.49;97269.41;5011943;28;20037;-89
2024/03/13 11:19:17;;;;;;;1.60;1.10;;;;;;;16.17;66.56;97266.50;4997487;28;20097;-87
2024/03/13 11:21:57;;;;;;;2.45;0.90;;;;;;;16.34;65.49;97279.22;4977751;28;20030;-89
2024/03/13 11:24:25;;;;;;;1.10;0.80;;;;;;;16.31;65.26;97279.78;4981403;28;20060;-86
2024/03/13 11:26:51;;;;;;;2.03;1.40;;;;;;;16.07;64.88;97262.13;4984644;28;20080;-89
2024/03/13 11:29:17;;;;;;;1.90;0.88;;;;;;;15.92;65.43;97268.31;4985212;28;20037;-88
2024/03/13 11:31:44;;;;;;;0.88;0.68;;;;;;;15.89;65.28;97261.75;4976111;28;20033;-89
2024/03/13 11:34:10;;;;;;;1.52;1.00;;;;;;;15.89;66.16;97266.25;4989899;28;20042;-88
2024/03/13 11:36:35;;;;;;;1.65;1.35;;;;;;;15.74;66.89;97267.13;4995356;28;20040;-87
2024/03/13 11:39:03;;;;;;;4.07;3.20;;;;;;;15.72;65.87;97269.25;4997182;28;20520;-86
2024/03/13 11:41:28;;;;;;;7.03;5.43;;;;;;;15.68;66.26;97262.97;4987110;28;20072;-88
2024/03/13 11:43:54;;;;;;;8.60;6.05;;;;;;;15.79;65.13;97276.84;4982092;28;20021;-84
2024/03/13 11:46:26;;;;;;;7.60;5.47;;;;;;;15.73;65.86;97276.06;4983735;28;20051;-89
2024/03/13 11:48:51;;;;;;;8.05;5.90;;;;;;;15.65;65.27;97271.41;4989662;28;20053;-86